Historyczne dane pomiarowe

Dodano dane terminowe – wersja testowa.

Dane z okresu 1951-2019

Wersja bazy: 1.34 [2019-03-16, lista zmian], aktualizacja planowana na 2019-04-15

Dane meteo z obszaru Polski uzyskane na podstawie danych udostępnionych przez Instytut Meteorologii i Gospodarki Wodnej – Państwowy Instytut Badawczy.

 

Wybierz Datę:    

       

TemperaturaWilgotnośćWiatrCiśnienieOpadyŚniegCzas trwania zjawisk
 Stacja t tx tn tng RH VA  wxwx mslp ppp RRR   cm mm wxwxwxwxwxwxwx
1961-08-14 14.9 20.4 7.8--- 4.0 0.7---- 0.0------------
1961-08-13 13.0 17.8 10.9--- 5.3 2.7---- 0.0------------
1961-08-12 17.0 20.7 14.5--- 7.7 1.0---- 14.4------------
1961-08-11 18.2 21.2 16.2--- 6.7 1.0---- 21.3------------
1961-08-10 21.0 28.4 16.8--- 4.0 0.7---- 13.2------------
1961-08-09 20.8 26.1 17.2--- 7.0 1.0---- 13.2------------
1961-08-08 18.7 23.9 13.6--- 5.3 1.0---- 0.0------------
1961-08-07 17.9 23.3 16.4--- 7.7 1.0---- 6.7------------
1961-08-06 25.0 31.3 14.7--- 1.3 3.0---- 2.5------------
1961-08-05 19.0 25.1 14.4--- 3.7 1.3---- 0.0------------
1961-08-04 15.7 20.7 7.3--- 6.7 2.0---- 0.0------------
1961-08-03 13.9 18.6 11.3--- 6.3 1.3---- 2.3------------
1961-08-02 16.8 26.3 8.3--- 4.7 0.7---- 5.1------------
1961-08-01 15.8 20.5 11.1--- 3.3 3.3---- 0.0------------
1961-07-31 13.7 16.7 11.5--- 6.3 5.0---- 0.0------------
1961-07-30 12.6 15.6 10.5--- 7.3 1.7---- 2.9------------
1961-07-29 13.2 17.6 11.8--- 7.0 3.3---- 0.0------------
1961-07-28 15.9 19.4 13.4--- 8.0 1.3---- 22.6------------
1961-07-27 18.4 24.6 15.6--- 8.0 4.7---- 7.0------------
1961-07-26 18.8 24.7 8.7--- 3.0 2.0---- 0.0------------
1961-07-25 13.7 16.7 11.1--- 7.3 1.7---- 0.0------------
1961-07-24 13.9 16.9 10.9--- 6.7 3.7---- 0.0------------
1961-07-23 14.9 18.0 9.9--- 7.0 1.7---- 0.0------------
1961-07-22 14.6 18.1 12.6--- 7.3 2.7---- 0.2------------
1961-07-21 14.9 16.8 10.0--- 8.0 2.0---- 0.0------------
1961-07-20 13.0 19.6 8.9--- 6.3 2.0---- 14.6------------
1961-07-19 13.3 19.8 12.1--- 7.3 1.7---- 2.1------------
1961-07-18 14.9 20.0 11.3--- 7.7 1.7---- 0.1------------
1961-07-17 14.3 17.8 10.4--- 7.0 2.0---- 0.0------------
1961-07-16 16.6 21.4 13.0--- 5.0 2.3---- 0.0------------
1961-07-15 19.6 24.8 14.3--- 6.3 2.0---- 22.3------------
1961-07-14 16.0 20.8 13.1--- 4.3 4.0---- 3.5------------
1961-07-13 18.3 27.4 14.4--- 5.0 3.0---- 3.3------------
1961-07-12 21.7 27.7 15.0--- 2.0 1.0---- 0.0------------
1961-07-11 16.7 23.6 6.4--- 7.3 0.3---- 3.2------------
1961-07-10 12.7 18.1 8.5--- 4.7 1.7---- 0.0------------
1961-07-09 13.6 17.5 7.0--- 5.7 1.0---- 6.0------------
1961-07-08 15.8 22.4 5.9--- 3.7 1.3---- 0.3------------
1961-07-07 13.2 17.2 8.4--- 5.3 0.7---- 0.0------------
1961-07-06 12.6 16.2 7.6--- 5.7 2.7---- 0.0------------
1961-07-05 12.7 18.1 10.3--- 3.7 3.7---- 0.0------------
1961-07-04 19.7 28.0 15.5--- 5.0 3.7---- 0.0------------
1961-07-03 24.0 31.0 10.5--- 1.7 1.3---- 0.0------------
1961-07-02 21.8 29.8 10.9--- 0.0 1.0---- 0.0------------
1961-07-01 21.0 27.7 9.7--- 0.0 0.7---- 0.0------------
1961-06-30 18.3 24.7 8.8--- 0.0 0.7---- 0.0------------
1961-06-29 16.3 21.8 7.6--- 1.3 2.7---- 0.0------------
1961-06-28 13.5 19.6 11.3--- 4.0 5.7---- 0.0------------
1961-06-27 21.5 28.1 14.6--- 5.3 0.7---- 3.3------------
1961-06-26 21.1 26.8 15.3--- 4.0 0.3---- 0.0------------
1961-06-25 21.8 28.5 12.3--- 0.0 0.7---- 0.0------------
1961-06-24 18.8 25.6 12.1--- 3.3 2.3---- 0.0------------
1961-06-23 17.7 22.4 13.8--- 3.3 3.3---- 0.0------------
1961-06-22 19.9 25.3 7.2--- 2.7 2.0---- 11.5------------
1961-06-21 16.1 24.2 5.6--- 2.0 1.0---- 0.0------------
1961-06-20 14.6 19.2 7.5--- 1.0 2.0---- 0.0------------
1961-06-19 15.3 20.3 13.0--- 6.0 0.3---- 0.0------------
1961-06-18 20.3 26.1 10.4--- 0.3 2.0---- 0.0------------
1961-06-17 15.5 22.2 6.2--- 3.0 0.7---- 0.0------------
1961-06-16 12.7 19.2 5.5--- 3.7 1.3---- 0.0------------
1069.7 ms

 

Źródłem pochodzenia danych jest Instytut Meteorologii i Gospodarki Wodnej – Państwowy Instytut Badawczy. Dane Instytutu Meteorologii i Gospodarki Wodnej – Państwowego Instytutu Badawczego zostały przetworzone.

Dane źródłowe można odnaleźć na stronie https://dane.imgw.pl